Etusivu
METAR-TAF:

METAR-TAF

Lentoasemat :

Honningsvåg, Norja

Leveyspiiri: 71-01N, Pituuspiiri: 025-59E, korkeus merenpinnasta: 1 m

Tämänhetkinen sää

Tämä raportti tehtiin 3 tuntia ja 34 minuuttia sitten, kello 22.20 UTC
Tuuli 9 kn lännestä
Lämpötila -1°C
Kosteus 74%
Ilmanpaine 1003 hPa
Näkyvyys 10 km tai enemmän
Muutamia pilviä 1800 ft:n korkeudessa
Hajanaisia pilviä 4600 ft:n korkeudessa

METAR: ENHV 252220Z 27009KT 9999 FEW018 SCT046 M01/M05 Q1003

Aika: 02:54 (01:54 UTC)


TAF: puuttuu

Säähavainnot ja -ennusteet yli 4000 lentoasemalta (METAR- ja TAF-raportit).

Käytössä olevat sääasemat on merkitty karttaan keltaisilla ja punaisilla pisteillä.

Aseta hiiri pisteen päälle nähdäksesi sääaseman nimen.

Klikkaa sitten nähdäksesi säähavainnot ja -ennusteet.

Kartan vaihtaminen: klikkaa mustalla rastilla varustettuja vihreitä pisteitä, niin voit zoomata sisään; viivalla varustettua vihreää pistettä, niin voit zoomata ulos tai vihreitä nuolia, niin pääset viereisille kartoille.


METAR-TAF: